Terminal Aerodrome Forecast
Issued by NWS

Home | Current Version | Previous Version | Text Only | Print | Product List | Glossary On
Versions: 1 2 3 4 5 6 7 8 9 10 11 12 13 14 15 16 17 18 19
136
FTUS44 KLIX 252328
TAFMCB
TAF
KMCB 252328Z 2600/2624 18012KT P6SM SKC
     FM260400 15005KT P6SM BKN100
     FM260900 18004KT P6SM BKN015
      TEMPO 2610/2614 BKN005
     FM261600 16005KT P6SM BKN060
     FM261900 16009KT P6SM SCT250=

USA.gov is the U.S. government's official web portal to all federal, state and local government web resources and services.